sensor_id;sensor_type;location;lat;lon;timestamp;P1;durP1;ratioP1;P2;durP2;ratioP2
55067;SDS011;40965;52.368;9.712;2022-11-20T00:00:35;15.38;;;7.75;;
55067;SDS011;40965;52.368;9.712;2022-11-20T00:03:05;15.43;;;6.57;;
55067;SDS011;40965;52.368;9.712;2022-11-20T00:05:39;13.63;;;7.53;;
55067;SDS011;40965;52.368;9.712;2022-11-20T00:08:41;13.25;;;7.95;;
55067;SDS011;40965;52.368;9.712;2022-11-20T00:11:19;12.18;;;7.60;;
55067;SDS011;40965;52.368;9.712;2022-11-20T00:13:54;14.77;;;7.90;;
55067;SDS011;40965;52.368;9.712;2022-11-20T00:16:30;14.13;;;7.55;;
55067;SDS011;40965;52.368;9.712;2022-11-20T00:19:03;12.43;;;7.03;;
55067;SDS011;40965;52.368;9.712;2022-11-20T00:21:32;10.95;;;7.78;;
55067;SDS011;40965;52.368;9.712;2022-11-20T00:24:01;13.95;;;8.32;;
55067;SDS011;40965;52.368;9.712;2022-11-20T00:26:36;17.52;;;8.52;;
55067;SDS011;40965;52.368;9.712;2022-11-20T00:29:16;20.08;;;9.15;;
55067;SDS011;40965;52.368;9.712;2022-11-20T00:31:43;15.48;;;9.20;;
55067;SDS011;40965;52.368;9.712;2022-11-20T00:34:11;17.17;;;8.63;;
55067;SDS011;40965;52.368;9.712;2022-11-20T00:36:41;17.02;;;9.25;;
55067;SDS011;40965;52.368;9.712;2022-11-20T00:39:12;16.02;;;9.90;;
55067;SDS011;40965;52.368;9.712;2022-11-20T00:41:45;11.82;;;7.50;;
55067;SDS011;40965;52.368;9.712;2022-11-20T00:44:15;15.52;;;8.35;;
55067;SDS011;40965;52.368;9.712;2022-11-20T00:46:42;13.20;;;8.57;;
55067;SDS011;40965;52.368;9.712;2022-11-20T00:49:16;11.45;;;7.05;;
55067;SDS011;40965;52.368;9.712;2022-11-20T00:51:48;13.93;;;7.97;;
55067;SDS011;40965;52.368;9.712;2022-11-20T00:54:22;13.93;;;8.95;;
55067;SDS011;40965;52.368;9.712;2022-11-20T00:56:55;14.05;;;8.63;;
55067;SDS011;40965;52.368;9.712;2022-11-20T00:59:23;12.60;;;7.47;;
55067;SDS011;40965;52.368;9.712;2022-11-20T01:01:51;14.82;;;8.88;;
55067;SDS011;40965;52.368;9.712;2022-11-20T01:04:18;16.33;;;8.43;;
55067;SDS011;40965;52.368;9.712;2022-11-20T01:06:54;12.57;;;7.85;;
55067;SDS011;40965;52.368;9.712;2022-11-20T01:09:23;13.75;;;8.63;;
55067;SDS011;40965;52.368;9.712;2022-11-20T01:11:59;15.15;;;9.13;;
55067;SDS011;40965;52.368;9.712;2022-11-20T01:14:28;14.60;;;8.40;;
55067;SDS011;40965;52.368;9.712;2022-11-20T01:16:56;11.75;;;7.55;;
55067;SDS011;40965;52.368;9.712;2022-11-20T01:19:25;16.00;;;8.45;;
55067;SDS011;40965;52.368;9.712;2022-11-20T01:21:56;14.90;;;7.60;;
55067;SDS011;40965;52.368;9.712;2022-11-20T01:24:32;13.80;;;8.32;;
55067;SDS011;40965;52.368;9.712;2022-11-20T01:27:03;11.52;;;7.57;;
55067;SDS011;40965;52.368;9.712;2022-11-20T01:29:35;12.85;;;7.07;;
55067;SDS011;40965;52.368;9.712;2022-11-20T01:32:04;13.93;;;8.40;;
55067;SDS011;40965;52.368;9.712;2022-11-20T01:34:32;12.82;;;7.93;;
55067;SDS011;40965;52.368;9.712;2022-11-20T01:36:59;14.95;;;7.35;;
55067;SDS011;40965;52.368;9.712;2022-11-20T01:39:28;14.85;;;8.93;;
55067;SDS011;40965;52.368;9.712;2022-11-20T01:41:58;11.90;;;7.47;;
55067;SDS011;40965;52.368;9.712;2022-11-20T01:47:28;16.70;;;7.97;;
55067;SDS011;40965;52.368;9.712;2022-11-20T01:52:45;11.32;;;7.20;;
55067;SDS011;40965;52.368;9.712;2022-11-20T01:55:50;12.63;;;7.78;;
55067;SDS011;40965;52.368;9.712;2022-11-20T01:58:30;13.02;;;8.20;;
55067;SDS011;40965;52.368;9.712;2022-11-20T02:01:11;16.83;;;7.25;;
55067;SDS011;40965;52.368;9.712;2022-11-20T02:03:45;11.40;;;7.32;;
55067;SDS011;40965;52.368;9.712;2022-11-20T02:06:19;11.48;;;5.97;;
55067;SDS011;40965;52.368;9.712;2022-11-20T02:08:52;12.18;;;7.63;;
55067;SDS011;40965;52.368;9.712;2022-11-20T02:11:34;10.18;;;6.72;;
55067;SDS011;40965;52.368;9.712;2022-11-20T02:14:01;10.27;;;7.13;;
55067;SDS011;40965;52.368;9.712;2022-11-20T02:16:37;11.57;;;6.53;;
55067;SDS011;40965;52.368;9.712;2022-11-20T02:24:41;12.10;;;6.47;;
55067;SDS011;40965;52.368;9.712;2022-11-20T02:27:15;11.88;;;7.93;;
55067;SDS011;40965;52.368;9.712;2022-11-20T02:29:53;9.48;;;6.80;;
55067;SDS011;40965;52.368;9.712;2022-11-20T02:32:32;15.50;;;6.82;;
55067;SDS011;40965;52.368;9.712;2022-11-20T02:37:53;9.20;;;5.50;;
55067;SDS011;40965;52.368;9.712;2022-11-20T02:40:25;10.05;;;6.88;;
55067;SDS011;40965;52.368;9.712;2022-11-20T02:42:59;10.48;;;6.55;;
55067;SDS011;40965;52.368;9.712;2022-11-20T02:45:29;9.90;;;5.85;;
55067;SDS011;40965;52.368;9.712;2022-11-20T02:47:58;7.80;;;5.75;;
55067;SDS011;40965;52.368;9.712;2022-11-20T02:50:26;10.40;;;6.47;;
55067;SDS011;40965;52.368;9.712;2022-11-20T02:52:54;14.80;;;7.80;;
55067;SDS011;40965;52.368;9.712;2022-11-20T02:55:23;14.00;;;7.57;;
55067;SDS011;40965;52.368;9.712;2022-11-20T02:57:50;11.18;;;7.22;;
55067;SDS011;40965;52.368;9.712;2022-11-20T03:00:20;9.80;;;6.35;;
55067;SDS011;40965;52.368;9.712;2022-11-20T03:03:02;13.15;;;6.95;;
55067;SDS011;40965;52.368;9.712;2022-11-20T03:05:32;10.02;;;6.65;;
55067;SDS011;40965;52.368;9.712;2022-11-20T03:08:03;13.25;;;7.40;;
55067;SDS011;40965;52.368;9.712;2022-11-20T03:10:32;14.18;;;6.70;;
55067;SDS011;40965;52.368;9.712;2022-11-20T03:13:08;11.73;;;6.78;;
55067;SDS011;40965;52.368;9.712;2022-11-20T03:15:41;11.68;;;7.38;;
55067;SDS011;40965;52.368;9.712;2022-11-20T03:18:08;11.27;;;6.47;;
55067;SDS011;40965;52.368;9.712;2022-11-20T03:20:49;13.20;;;6.88;;
55067;SDS011;40965;52.368;9.712;2022-11-20T03:23:28;12.10;;;7.15;;
55067;SDS011;40965;52.368;9.712;2022-11-20T03:26:15;14.55;;;7.25;;
55067;SDS011;40965;52.368;9.712;2022-11-20T03:28:47;10.37;;;6.33;;
55067;SDS011;40965;52.368;9.712;2022-11-20T03:31:20;13.38;;;7.53;;
55067;SDS011;40965;52.368;9.712;2022-11-20T03:33:50;10.02;;;7.25;;
55067;SDS011;40965;52.368;9.712;2022-11-20T03:36:19;13.05;;;7.28;;
55067;SDS011;40965;52.368;9.712;2022-11-20T03:38:47;10.38;;;6.90;;
55067;SDS011;40965;52.368;9.712;2022-11-20T03:41:19;13.07;;;7.00;;
55067;SDS011;40965;52.368;9.712;2022-11-20T03:43:53;12.90;;;7.45;;
55067;SDS011;40965;52.368;9.712;2022-11-20T03:46:25;12.93;;;8.00;;
55067;SDS011;40965;52.368;9.712;2022-11-20T03:49:34;13.18;;;6.70;;
55067;SDS011;40965;52.368;9.712;2022-11-20T03:52:03;11.60;;;6.93;;
55067;SDS011;40965;52.368;9.712;2022-11-20T03:54:31;11.57;;;6.25;;
55067;SDS011;40965;52.368;9.712;2022-11-20T03:57:01;13.90;;;7.35;;
55067;SDS011;40965;52.368;9.712;2022-11-20T03:59:38;10.40;;;6.60;;
55067;SDS011;40965;52.368;9.712;2022-11-20T04:02:09;11.07;;;7.88;;
55067;SDS011;40965;52.368;9.712;2022-11-20T04:04:40;11.13;;;7.75;;
55067;SDS011;40965;52.368;9.712;2022-11-20T04:07:14;9.88;;;6.40;;
55067;SDS011;40965;52.368;9.712;2022-11-20T04:09:43;16.10;;;7.47;;
55067;SDS011;40965;52.368;9.712;2022-11-20T04:12:13;11.18;;;7.25;;
55067;SDS011;40965;52.368;9.712;2022-11-20T04:14:40;10.02;;;7.05;;
55067;SDS011;40965;52.368;9.712;2022-11-20T04:17:08;11.93;;;6.82;;
55067;SDS011;40965;52.368;9.712;2022-11-20T04:19:36;13.05;;;8.10;;
55067;SDS011;40965;52.368;9.712;2022-11-20T04:22:05;13.00;;;8.20;;
55067;SDS011;40965;52.368;9.712;2022-11-20T04:27:07;9.73;;;6.07;;
55067;SDS011;40965;52.368;9.712;2022-11-20T04:29:36;10.60;;;6.30;;
55067;SDS011;40965;52.368;9.712;2022-11-20T04:32:04;10.57;;;6.97;;
55067;SDS011;40965;52.368;9.712;2022-11-20T04:34:32;12.48;;;7.50;;
55067;SDS011;40965;52.368;9.712;2022-11-20T04:37:03;11.30;;;7.93;;
55067;SDS011;40965;52.368;9.712;2022-11-20T04:39:31;12.00;;;7.93;;
55067;SDS011;40965;52.368;9.712;2022-11-20T04:41:58;9.75;;;7.10;;
55067;SDS011;40965;52.368;9.712;2022-11-20T04:44:45;13.68;;;7.35;;
55067;SDS011;40965;52.368;9.712;2022-11-20T04:47:15;10.38;;;7.55;;
55067;SDS011;40965;52.368;9.712;2022-11-20T04:52:29;14.52;;;6.82;;
55067;SDS011;40965;52.368;9.712;2022-11-20T04:55:01;16.15;;;6.55;;
55067;SDS011;40965;52.368;9.712;2022-11-20T04:57:29;9.48;;;6.70;;
55067;SDS011;40965;52.368;9.712;2022-11-20T05:00:09;12.38;;;6.03;;
55067;SDS011;40965;52.368;9.712;2022-11-20T05:02:39;11.48;;;7.35;;
55067;SDS011;40965;52.368;9.712;2022-11-20T05:05:12;12.40;;;7.50;;
55067;SDS011;40965;52.368;9.712;2022-11-20T05:07:42;11.05;;;6.28;;
55067;SDS011;40965;52.368;9.712;2022-11-20T05:10:08;10.70;;;6.97;;
55067;SDS011;40965;52.368;9.712;2022-11-20T05:12:37;12.10;;;7.13;;
55067;SDS011;40965;52.368;9.712;2022-11-20T05:15:06;12.23;;;7.07;;
55067;SDS011;40965;52.368;9.712;2022-11-20T05:17:39;10.50;;;6.10;;
55067;SDS011;40965;52.368;9.712;2022-11-20T05:20:28;11.55;;;6.93;;
55067;SDS011;40965;52.368;9.712;2022-11-20T05:22:58;12.40;;;6.97;;
55067;SDS011;40965;52.368;9.712;2022-11-20T05:25:33;11.27;;;7.28;;
55067;SDS011;40965;52.368;9.712;2022-11-20T05:28:03;10.27;;;6.65;;
55067;SDS011;40965;52.368;9.712;2022-11-20T05:30:31;9.07;;;6.40;;
55067;SDS011;40965;52.368;9.712;2022-11-20T05:33:00;11.77;;;6.05;;
55067;SDS011;40965;52.368;9.712;2022-11-20T05:35:27;10.50;;;7.13;;
55067;SDS011;40965;52.368;9.712;2022-11-20T05:37:56;10.15;;;6.43;;
55067;SDS011;40965;52.368;9.712;2022-11-20T05:40:24;14.27;;;6.38;;
55067;SDS011;40965;52.368;9.712;2022-11-20T05:42:52;9.68;;;6.00;;
55067;SDS011;40965;52.368;9.712;2022-11-20T05:45:23;11.57;;;7.10;;
55067;SDS011;40965;52.368;9.712;2022-11-20T05:47:52;8.70;;;5.80;;
55067;SDS011;40965;52.368;9.712;2022-11-20T05:50:21;8.20;;;5.93;;
55067;SDS011;40965;52.368;9.712;2022-11-20T05:52:52;8.18;;;5.72;;
55067;SDS011;40965;52.368;9.712;2022-11-20T05:55:27;11.88;;;5.75;;
55067;SDS011;40965;52.368;9.712;2022-11-20T05:57:58;7.63;;;5.90;;
55067;SDS011;40965;52.368;9.712;2022-11-20T06:00:25;10.07;;;6.32;;
55067;SDS011;40965;52.368;9.712;2022-11-20T06:02:53;11.43;;;6.32;;
55067;SDS011;40965;52.368;9.712;2022-11-20T06:05:20;11.88;;;8.27;;
55067;SDS011;40965;52.368;9.712;2022-11-20T06:07:48;10.02;;;6.05;;
55067;SDS011;40965;52.368;9.712;2022-11-20T06:10:17;8.73;;;6.75;;
55067;SDS011;40965;52.368;9.712;2022-11-20T06:12:48;10.13;;;6.55;;
55067;SDS011;40965;52.368;9.712;2022-11-20T06:15:19;11.00;;;6.38;;
55067;SDS011;40965;52.368;9.712;2022-11-20T06:17:51;11.52;;;6.95;;
55067;SDS011;40965;52.368;9.712;2022-11-20T06:20:35;10.60;;;6.53;;
55067;SDS011;40965;52.368;9.712;2022-11-20T06:23:04;7.45;;;5.50;;
55067;SDS011;40965;52.368;9.712;2022-11-20T06:25:32;6.85;;;5.57;;
55067;SDS011;40965;52.368;9.712;2022-11-20T06:28:11;10.77;;;5.68;;
55067;SDS011;40965;52.368;9.712;2022-11-20T06:30:45;7.72;;;5.90;;
55067;SDS011;40965;52.368;9.712;2022-11-20T06:33:13;9.80;;;6.82;;
55067;SDS011;40965;52.368;9.712;2022-11-20T06:35:44;11.63;;;6.30;;
55067;SDS011;40965;52.368;9.712;2022-11-20T06:38:11;9.23;;;6.57;;
55067;SDS011;40965;52.368;9.712;2022-11-20T06:40:41;10.48;;;5.90;;
55067;SDS011;40965;52.368;9.712;2022-11-20T06:43:12;7.03;;;5.03;;
55067;SDS011;40965;52.368;9.712;2022-11-20T06:45:39;8.95;;;5.60;;
55067;SDS011;40965;52.368;9.712;2022-11-20T06:48:12;9.73;;;5.88;;
55067;SDS011;40965;52.368;9.712;2022-11-20T06:50:38;8.45;;;5.97;;
55067;SDS011;40965;52.368;9.712;2022-11-20T06:53:06;9.48;;;6.35;;
55067;SDS011;40965;52.368;9.712;2022-11-20T06:55:33;9.75;;;6.38;;
55067;SDS011;40965;52.368;9.712;2022-11-20T06:57:59;8.20;;;5.20;;
55067;SDS011;40965;52.368;9.712;2022-11-20T07:00:26;9.80;;;6.18;;
55067;SDS011;40965;52.368;9.712;2022-11-20T07:02:53;8.80;;;6.03;;
55067;SDS011;40965;52.368;9.712;2022-11-20T07:05:20;9.25;;;5.70;;
55067;SDS011;40965;52.368;9.712;2022-11-20T07:07:46;9.10;;;6.32;;
55067;SDS011;40965;52.368;9.712;2022-11-20T07:10:13;11.18;;;6.15;;
55067;SDS011;40965;52.368;9.712;2022-11-20T07:12:41;11.38;;;6.63;;
55067;SDS011;40965;52.368;9.712;2022-11-20T07:15:07;8.80;;;6.35;;
55067;SDS011;40965;52.368;9.712;2022-11-20T07:17:37;11.77;;;7.10;;
55067;SDS011;40965;52.368;9.712;2022-11-20T07:20:04;9.57;;;6.45;;
55067;SDS011;40965;52.368;9.712;2022-11-20T07:22:31;11.82;;;6.80;;
55067;SDS011;40965;52.368;9.712;2022-11-20T07:24:58;10.15;;;6.47;;
55067;SDS011;40965;52.368;9.712;2022-11-20T07:27:25;10.18;;;6.63;;
55067;SDS011;40965;52.368;9.712;2022-11-20T07:29:52;12.45;;;7.05;;
55067;SDS011;40965;52.368;9.712;2022-11-20T07:32:19;13.77;;;7.25;;
55067;SDS011;40965;52.368;9.712;2022-11-20T07:34:46;9.45;;;6.07;;
55067;SDS011;40965;52.368;9.712;2022-11-20T07:37:14;9.80;;;6.05;;
55067;SDS011;40965;52.368;9.712;2022-11-20T07:39:41;9.63;;;6.38;;
55067;SDS011;40965;52.368;9.712;2022-11-20T07:42:08;10.27;;;6.03;;
55067;SDS011;40965;52.368;9.712;2022-11-20T07:44:37;9.60;;;5.57;;
55067;SDS011;40965;52.368;9.712;2022-11-20T07:47:07;8.07;;;5.28;;
55067;SDS011;40965;52.368;9.712;2022-11-20T07:49:38;9.80;;;6.05;;
55067;SDS011;40965;52.368;9.712;2022-11-20T07:52:06;8.77;;;5.30;;
55067;SDS011;40965;52.368;9.712;2022-11-20T07:54:33;9.30;;;4.95;;
55067;SDS011;40965;52.368;9.712;2022-11-20T07:57:03;9.30;;;5.72;;
55067;SDS011;40965;52.368;9.712;2022-11-20T07:59:29;10.32;;;6.15;;
55067;SDS011;40965;52.368;9.712;2022-11-20T08:01:56;9.55;;;5.55;;
55067;SDS011;40965;52.368;9.712;2022-11-20T08:04:23;8.95;;;5.75;;
55067;SDS011;40965;52.368;9.712;2022-11-20T08:06:51;6.25;;;4.97;;
55067;SDS011;40965;52.368;9.712;2022-11-20T08:09:18;10.07;;;5.20;;
55067;SDS011;40965;52.368;9.712;2022-11-20T08:11:45;8.70;;;5.78;;
55067;SDS011;40965;52.368;9.712;2022-11-20T08:14:38;11.25;;;6.53;;
55067;SDS011;40965;52.368;9.712;2022-11-20T08:17:08;10.80;;;6.35;;
55067;SDS011;40965;52.368;9.712;2022-11-20T08:19:34;9.43;;;6.22;;
55067;SDS011;40965;52.368;9.712;2022-11-20T08:24:35;10.63;;;6.15;;
55067;SDS011;40965;52.368;9.712;2022-11-20T08:27:02;12.90;;;6.85;;
55067;SDS011;40965;52.368;9.712;2022-11-20T08:29:29;10.05;;;6.50;;
55067;SDS011;40965;52.368;9.712;2022-11-20T08:31:56;13.75;;;6.47;;
55067;SDS011;40965;52.368;9.712;2022-11-20T08:34:25;12.73;;;7.63;;
55067;SDS011;40965;52.368;9.712;2022-11-20T08:36:52;8.15;;;5.43;;
55067;SDS011;40965;52.368;9.712;2022-11-20T08:39:21;10.02;;;6.60;;
55067;SDS011;40965;52.368;9.712;2022-11-20T08:41:49;11.82;;;6.05;;
55067;SDS011;40965;52.368;9.712;2022-11-20T08:44:17;10.80;;;6.10;;
55067;SDS011;40965;52.368;9.712;2022-11-20T08:46:46;12.13;;;7.57;;
55067;SDS011;40965;52.368;9.712;2022-11-20T08:49:13;8.75;;;6.50;;
55067;SDS011;40965;52.368;9.712;2022-11-20T08:51:40;11.57;;;7.13;;
55067;SDS011;40965;52.368;9.712;2022-11-20T08:54:10;10.63;;;6.00;;
55067;SDS011;40965;52.368;9.712;2022-11-20T08:56:36;10.20;;;7.10;;
55067;SDS011;40965;52.368;9.712;2022-11-20T08:59:03;10.70;;;6.60;;
55067;SDS011;40965;52.368;9.712;2022-11-20T09:01:30;11.82;;;7.50;;
55067;SDS011;40965;52.368;9.712;2022-11-20T09:03:57;10.75;;;6.82;;
55067;SDS011;40965;52.368;9.712;2022-11-20T09:06:24;12.57;;;7.78;;
55067;SDS011;40965;52.368;9.712;2022-11-20T09:08:52;11.77;;;7.90;;
55067;SDS011;40965;52.368;9.712;2022-11-20T09:11:23;11.50;;;7.93;;
55067;SDS011;40965;52.368;9.712;2022-11-20T09:13:50;9.93;;;7.07;;
55067;SDS011;40965;52.368;9.712;2022-11-20T09:16:20;9.18;;;6.90;;
55067;SDS011;40965;52.368;9.712;2022-11-20T09:18:49;11.10;;;6.00;;
55067;SDS011;40965;52.368;9.712;2022-11-20T09:21:16;12.27;;;7.45;;
55067;SDS011;40965;52.368;9.712;2022-11-20T09:23:43;10.02;;;6.80;;
55067;SDS011;40965;52.368;9.712;2022-11-20T09:26:12;9.93;;;6.65;;
55067;SDS011;40965;52.368;9.712;2022-11-20T09:28:39;13.40;;;7.72;;
55067;SDS011;40965;52.368;9.712;2022-11-20T09:31:07;14.48;;;8.25;;
55067;SDS011;40965;52.368;9.712;2022-11-20T09:33:35;14.45;;;7.68;;
55067;SDS011;40965;52.368;9.712;2022-11-20T09:36:03;12.68;;;7.53;;
55067;SDS011;40965;52.368;9.712;2022-11-20T09:38:30;10.73;;;7.28;;
55067;SDS011;40965;52.368;9.712;2022-11-20T09:41:19;9.77;;;7.82;;
55067;SDS011;40965;52.368;9.712;2022-11-20T09:53:04;9.90;;;6.60;;
55067;SDS011;40965;52.368;9.712;2022-11-20T09:55:34;10.13;;;8.07;;
55067;SDS011;40965;52.368;9.712;2022-11-20T09:58:05;11.30;;;6.68;;
55067;SDS011;40965;52.368;9.712;2022-11-20T10:00:35;10.43;;;6.60;;
55067;SDS011;40965;52.368;9.712;2022-11-20T10:06:23;9.98;;;7.18;;
55067;SDS011;40965;52.368;9.712;2022-11-20T10:09:25;13.15;;;5.93;;
55067;SDS011;40965;52.368;9.712;2022-11-20T10:12:04;10.45;;;6.57;;
55067;SDS011;40965;52.368;9.712;2022-11-20T10:14:55;7.25;;;5.55;;
55067;SDS011;40965;52.368;9.712;2022-11-20T10:18:26;9.98;;;5.90;;
55067;SDS011;40965;52.368;9.712;2022-11-20T10:21:22;6.57;;;5.40;;
55067;SDS011;40965;52.368;9.712;2022-11-20T10:24:02;6.40;;;5.30;;
55067;SDS011;40965;52.368;9.712;2022-11-20T10:30:16;7.68;;;5.35;;
55067;SDS011;40965;52.368;9.712;2022-11-20T10:32:47;11.35;;;6.68;;
55067;SDS011;40965;52.368;9.712;2022-11-20T10:35:55;7.72;;;5.10;;
55067;SDS011;40965;52.368;9.712;2022-11-20T10:41:49;11.52;;;5.63;;
55067;SDS011;40965;52.368;9.712;2022-11-20T10:44:20;6.40;;;4.72;;
55067;SDS011;40965;52.368;9.712;2022-11-20T10:47:15;7.05;;;5.20;;
55067;SDS011;40965;52.368;9.712;2022-11-20T10:49:52;9.50;;;5.07;;
55067;SDS011;40965;52.368;9.712;2022-11-20T10:52:33;8.35;;;5.20;;
55067;SDS011;40965;52.368;9.712;2022-11-20T10:55:50;7.43;;;5.18;;
55067;SDS011;40965;52.368;9.712;2022-11-20T11:01:54;6.78;;;4.90;;
55067;SDS011;40965;52.368;9.712;2022-11-20T11:07:09;7.20;;;5.20;;
55067;SDS011;40965;52.368;9.712;2022-11-20T11:09:43;8.77;;;4.78;;
55067;SDS011;40965;52.368;9.712;2022-11-20T11:12:16;7.15;;;4.60;;
55067;SDS011;40965;52.368;9.712;2022-11-20T11:14:48;7.43;;;5.13;;
55067;SDS011;40965;52.368;9.712;2022-11-20T11:17:18;7.07;;;5.30;;
55067;SDS011;40965;52.368;9.712;2022-11-20T11:20:04;5.22;;;4.50;;
55067;SDS011;40965;52.368;9.712;2022-11-20T11:22:55;5.07;;;4.07;;
55067;SDS011;40965;52.368;9.712;2022-11-20T11:28:19;7.03;;;4.82;;
55067;SDS011;40965;52.368;9.712;2022-11-20T11:30:49;5.90;;;4.75;;
55067;SDS011;40965;52.368;9.712;2022-11-20T11:33:20;6.50;;;4.82;;
55067;SDS011;40965;52.368;9.712;2022-11-20T11:35:50;5.88;;;4.15;;
55067;SDS011;40965;52.368;9.712;2022-11-20T11:38:27;4.93;;;4.10;;
55067;SDS011;40965;52.368;9.712;2022-11-20T11:40:59;6.45;;;4.72;;
55067;SDS011;40965;52.368;9.712;2022-11-20T11:43:34;7.07;;;5.13;;
55067;SDS011;40965;52.368;9.712;2022-11-20T11:49:08;11.15;;;5.47;;
55067;SDS011;40965;52.368;9.712;2022-11-20T11:54:31;10.98;;;5.90;;
55067;SDS011;40965;52.368;9.712;2022-11-20T11:57:07;9.43;;;6.45;;
55067;SDS011;40965;52.368;9.712;2022-11-20T12:00:05;8.30;;;5.38;;
55067;SDS011;40965;52.368;9.712;2022-11-20T12:07:50;10.43;;;6.22;;
55067;SDS011;40965;52.368;9.712;2022-11-20T12:10:47;9.80;;;6.55;;
55067;SDS011;40965;52.368;9.712;2022-11-20T12:16:12;8.38;;;6.65;;
55067;SDS011;40965;52.368;9.712;2022-11-20T12:18:41;10.48;;;7.07;;
55067;SDS011;40965;52.368;9.712;2022-11-20T12:30:00;11.50;;;7.30;;
55067;SDS011;40965;52.368;9.712;2022-11-20T12:35:53;12.90;;;7.80;;
55067;SDS011;40965;52.368;9.712;2022-11-20T12:39:06;9.65;;;6.55;;
55067;SDS011;40965;52.368;9.712;2022-11-20T12:42:02;9.63;;;6.28;;
55067;SDS011;40965;52.368;9.712;2022-11-20T12:47:59;8.73;;;7.03;;
55067;SDS011;40965;52.368;9.712;2022-11-20T13:11:13;12.13;;;6.95;;
55067;SDS011;40965;52.368;9.712;2022-11-20T13:19:40;11.70;;;7.63;;
55067;SDS011;40965;52.368;9.712;2022-11-20T13:22:08;12.90;;;8.77;;
55067;SDS011;40965;52.368;9.712;2022-11-20T13:24:36;10.70;;;6.85;;
55067;SDS011;40965;52.368;9.712;2022-11-20T13:27:25;14.02;;;7.78;;
55067;SDS011;40965;52.368;9.712;2022-11-20T13:32:55;11.20;;;7.13;;
55067;SDS011;40965;52.368;9.712;2022-11-20T13:35:40;14.18;;;6.20;;
55067;SDS011;40965;52.368;9.712;2022-11-20T13:38:12;12.05;;;7.50;;
55067;SDS011;40965;52.368;9.712;2022-11-20T13:40:54;21.17;;;10.40;;
55067;SDS011;40965;52.368;9.712;2022-11-20T13:43:47;14.90;;;9.45;;
55067;SDS011;40965;52.368;9.712;2022-11-20T13:46:14;17.98;;;11.52;;
55067;SDS011;40965;52.368;9.712;2022-11-20T13:48:42;17.13;;;10.93;;
55067;SDS011;40965;52.368;9.712;2022-11-20T13:57:25;11.85;;;8.13;;
55067;SDS011;40965;52.368;9.712;2022-11-20T14:05:34;14.50;;;7.72;;
55067;SDS011;40965;52.368;9.712;2022-11-20T14:08:12;12.00;;;7.72;;
55067;SDS011;40965;52.368;9.712;2022-11-20T14:14:04;14.13;;;7.55;;
55067;SDS011;40965;52.368;9.712;2022-11-20T14:16:46;13.45;;;8.75;;
55067;SDS011;40965;52.368;9.712;2022-11-20T14:21:42;12.55;;;8.10;;
55067;SDS011;40965;52.368;9.712;2022-11-20T14:24:10;17.05;;;9.20;;
55067;SDS011;40965;52.368;9.712;2022-11-20T14:26:43;13.13;;;7.82;;
55067;SDS011;40965;52.368;9.712;2022-11-20T14:29:13;11.87;;;7.87;;
55067;SDS011;40965;52.368;9.712;2022-11-20T14:31:44;16.52;;;9.18;;
55067;SDS011;40965;52.368;9.712;2022-11-20T14:34:18;12.90;;;7.68;;
55067;SDS011;40965;52.368;9.712;2022-11-20T14:36:49;15.68;;;9.20;;
55067;SDS011;40965;52.368;9.712;2022-11-20T14:39:25;13.38;;;8.27;;
55067;SDS011;40965;52.368;9.712;2022-11-20T14:41:59;12.10;;;8.27;;
55067;SDS011;40965;52.368;9.712;2022-11-20T14:44:27;11.70;;;8.10;;
55067;SDS011;40965;52.368;9.712;2022-11-20T14:47:00;16.70;;;12.20;;
55067;SDS011;40965;52.368;9.712;2022-11-20T14:49:32;11.70;;;8.60;;
55067;SDS011;40965;52.368;9.712;2022-11-20T14:55:04;13.38;;;7.95;;
55067;SDS011;40965;52.368;9.712;2022-11-20T14:57:53;15.13;;;8.27;;
55067;SDS011;40965;52.368;9.712;2022-11-20T15:00:39;13.57;;;8.23;;
55067;SDS011;40965;52.368;9.712;2022-11-20T15:03:33;13.35;;;7.28;;
55067;SDS011;40965;52.368;9.712;2022-11-20T15:06:11;12.80;;;8.25;;
55067;SDS011;40965;52.368;9.712;2022-11-20T15:08:55;15.38;;;8.85;;
55067;SDS011;40965;52.368;9.712;2022-11-20T15:11:36;14.95;;;8.82;;
55067;SDS011;40965;52.368;9.712;2022-11-20T15:14:12;12.05;;;7.30;;
55067;SDS011;40965;52.368;9.712;2022-11-20T15:16:50;12.20;;;8.20;;
55067;SDS011;40965;52.368;9.712;2022-11-20T15:19:23;9.75;;;6.35;;
55067;SDS011;40965;52.368;9.712;2022-11-20T15:22:09;21.42;;;13.93;;
55067;SDS011;40965;52.368;9.712;2022-11-20T15:24:41;12.02;;;7.90;;
55067;SDS011;40965;52.368;9.712;2022-11-20T15:27:10;15.63;;;10.10;;
55067;SDS011;40965;52.368;9.712;2022-11-20T15:29:41;26.35;;;12.45;;
55067;SDS011;40965;52.368;9.712;2022-11-20T15:32:13;13.98;;;8.40;;
55067;SDS011;40965;52.368;9.712;2022-11-20T15:34:40;13.20;;;7.45;;
55067;SDS011;40965;52.368;9.712;2022-11-20T15:37:12;11.07;;;7.28;;
55067;SDS011;40965;52.368;9.712;2022-11-20T15:39:38;12.55;;;7.90;;
55067;SDS011;40965;52.368;9.712;2022-11-20T15:42:08;13.45;;;7.68;;
55067;SDS011;40965;52.368;9.712;2022-11-20T15:44:37;13.93;;;7.95;;
55067;SDS011;40965;52.368;9.712;2022-11-20T15:47:06;13.43;;;7.40;;
55067;SDS011;40965;52.368;9.712;2022-11-20T15:49:34;12.73;;;7.90;;
55067;SDS011;40965;52.368;9.712;2022-11-20T15:52:02;16.63;;;9.38;;
55067;SDS011;40965;52.368;9.712;2022-11-20T15:54:30;11.32;;;7.38;;
55067;SDS011;40965;52.368;9.712;2022-11-20T15:56:59;12.52;;;9.25;;
55067;SDS011;40965;52.368;9.712;2022-11-20T15:59:27;15.02;;;9.30;;
55067;SDS011;40965;52.368;9.712;2022-11-20T16:01:54;11.70;;;6.85;;
55067;SDS011;40965;52.368;9.712;2022-11-20T16:04:21;14.57;;;8.07;;
55067;SDS011;40965;52.368;9.712;2022-11-20T16:06:48;18.48;;;10.25;;
55067;SDS011;40965;52.368;9.712;2022-11-20T16:09:14;18.85;;;10.27;;
55067;SDS011;40965;52.368;9.712;2022-11-20T16:11:41;19.23;;;10.38;;
55067;SDS011;40965;52.368;9.712;2022-11-20T16:14:09;24.15;;;12.43;;
55067;SDS011;40965;52.368;9.712;2022-11-20T16:16:54;30.50;;;17.17;;
55067;SDS011;40965;52.368;9.712;2022-11-20T16:19:21;23.50;;;13.90;;
55067;SDS011;40965;52.368;9.712;2022-11-20T16:21:48;15.98;;;9.45;;
55067;SDS011;40965;52.368;9.712;2022-11-20T16:24:16;15.63;;;9.45;;
55067;SDS011;40965;52.368;9.712;2022-11-20T16:26:43;21.13;;;11.45;;
55067;SDS011;40965;52.368;9.712;2022-11-20T16:29:14;17.92;;;10.40;;
55067;SDS011;40965;52.368;9.712;2022-11-20T16:31:50;15.65;;;10.93;;
55067;SDS011;40965;52.368;9.712;2022-11-20T16:34:18;19.33;;;12.40;;
55067;SDS011;40965;52.368;9.712;2022-11-20T16:36:50;22.95;;;12.75;;
55067;SDS011;40965;52.368;9.712;2022-11-20T16:39:29;22.98;;;11.23;;
55067;SDS011;40965;52.368;9.712;2022-11-20T16:42:00;19.58;;;11.13;;
55067;SDS011;40965;52.368;9.712;2022-11-20T16:44:30;17.52;;;10.68;;
55067;SDS011;40965;52.368;9.712;2022-11-20T16:47:00;23.00;;;13.50;;
55067;SDS011;40965;52.368;9.712;2022-11-20T16:49:29;22.02;;;11.48;;
55067;SDS011;40965;52.368;9.712;2022-11-20T16:52:14;17.80;;;11.85;;
55067;SDS011;40965;52.368;9.712;2022-11-20T16:54:42;16.60;;;10.20;;
55067;SDS011;40965;52.368;9.712;2022-11-20T16:57:10;22.58;;;12.85;;
55067;SDS011;40965;52.368;9.712;2022-11-20T16:59:39;22.67;;;12.68;;
55067;SDS011;40965;52.368;9.712;2022-11-20T17:02:09;28.60;;;12.38;;
55067;SDS011;40965;52.368;9.712;2022-11-20T17:04:40;18.20;;;10.32;;
55067;SDS011;40965;52.368;9.712;2022-11-20T17:07:10;16.83;;;10.07;;
55067;SDS011;40965;52.368;9.712;2022-11-20T17:09:39;17.08;;;10.75;;
55067;SDS011;40965;52.368;9.712;2022-11-20T17:12:09;16.60;;;10.50;;
55067;SDS011;40965;52.368;9.712;2022-11-20T17:14:39;18.65;;;10.98;;
55067;SDS011;40965;52.368;9.712;2022-11-20T17:17:08;16.95;;;10.40;;